Time;durP1;ratioP1;P1;durP2;ratioP2;P2;SDS_P1;SDS_P2;PMS_P1;PMS_P2;Temp;Humidity;BMP_temperature;BMP_pressure;BME280_temperature;BME280_humidity;BME280_pressure;Samples;Min_cycle;Max_cycle;Signal;HPM_P1;HPM_P2
2023/09/04 00:02:17;;;;;;;6.57;3.45;;;;;;;14.71;94.05;102092.06;5009882;28;20065;-63
2023/09/04 00:04:44;;;;;;;5.28;4.15;;;;;;;14.68;93.46;102092.25;5004662;28;20058;-62
2023/09/04 00:07:12;;;;;;;8.23;3.65;;;;;;;14.65;94.24;102084.44;5000683;28;20478;-63
2023/09/04 00:09:39;;;;;;;5.93;3.10;;;;;;;14.64;94.60;102090.69;5012407;28;20136;-65
2023/09/04 00:12:06;;;;;;;6.38;3.30;;;;;;;14.63;95.37;102087.19;5007248;28;20080;-64
2023/09/04 00:14:34;;;;;;;4.18;3.17;;;;;;;14.62;95.00;102090.75;5005977;28;20530;-63
2023/09/04 00:17:01;;;;;;;4.82;2.83;;;;;;;14.60;94.67;102089.13;5005245;28;20064;-63
2023/09/04 00:19:28;;;;;;;6.78;3.13;;;;;;;14.61;95.14;102086.41;5007503;28;20077;-66
2023/09/04 00:21:58;;;;;;;7.13;3.40;;;;;;;14.58;95.31;102086.56;5006675;28;20153;-62
2023/09/04 00:24:26;;;;;;;4.00;3.03;;;;;;;14.57;95.63;102090.16;5006959;28;20049;-61
2023/09/04 00:26:53;;;;;;;8.40;3.45;;;;;;;14.58;96.34;102107.75;5001677;28;20056;-60
2023/09/04 00:29:20;;;;;;;5.00;3.55;;;;;;;14.59;95.95;102093.59;5005468;28;20700;-60
2023/09/04 00:31:48;;;;;;;5.97;3.00;;;;;;;14.59;95.85;102100.66;5005577;28;20108;-61
2023/09/04 00:34:15;;;;;;;8.63;3.53;;;;;;;14.58;95.62;102104.25;5011959;28;20183;-62
2023/09/04 00:36:42;;;;;;;5.13;3.47;;;;;;;14.58;96.20;102104.25;5005246;28;20057;-62
2023/09/04 00:39:09;;;;;;;4.57;3.10;;;;;;;14.57;95.50;102106.03;5008001;28;20432;-62
2023/09/04 00:41:37;;;;;;;6.05;3.38;;;;;;;14.58;95.01;102104.25;5009845;28;20164;-60
2023/09/04 00:44:04;;;;;;;6.00;3.55;;;;;;;14.58;95.10;102107.75;5006384;28;20145;-62
2023/09/04 00:46:32;;;;;;;8.57;4.07;;;;;;;14.56;95.51;102104.34;5005544;28;20930;-63
2023/09/04 00:48:59;;;;;;;8.68;3.50;;;;;;;14.57;96.73;102095.44;5007433;28;20159;-62
2023/09/04 00:51:27;;;;;;;5.38;3.70;;;;;;;14.57;96.83;102095.44;5009547;28;20539;-62
2023/09/04 00:53:54;;;;;;;8.85;4.00;;;;;;;14.53;96.73;102096.53;4979411;28;20474;-60
2023/09/04 00:56:23;;;;;;;8.32;4.15;;;;;;;14.53;97.32;102098.34;5005769;28;20164;-61
2023/09/04 00:58:50;;;;;;;6.43;4.22;;;;;;;14.53;96.98;102095.69;5007960;28;20095;-61
2023/09/04 01:01:18;;;;;;;8.32;4.28;;;;;;;14.53;96.78;102088.59;5002636;28;20076;-61
2023/09/04 01:03:45;;;;;;;6.93;3.65;;;;;;;14.53;96.99;102093.03;5005454;28;20582;-61
2023/09/04 01:06:13;;;;;;;7.30;3.78;;;;;;;14.52;97.06;102097.47;5007478;28;20532;-62
2023/09/04 01:08:40;;;;;;;8.50;4.35;;;;;;;14.52;98.12;102100.13;5020073;28;20149;-61
2023/09/04 01:11:46;;;;;;;10.20;3.63;;;;;;;14.49;98.76;102092.31;5025370;28;20422;-62
2023/09/04 01:14:17;;;;;;;8.10;3.85;;;;;;;14.49;98.22;102099.44;5001309;28;20116;-63
2023/09/04 01:16:45;;;;;;;6.95;4.32;;;;;;;14.47;98.72;102103.94;5004564;28;20088;-60
2023/09/04 01:19:13;;;;;;;6.53;3.55;;;;;;;14.44;98.51;102094.34;4992897;28;20060;-61
2023/09/04 01:21:40;;;;;;;6.75;4.13;;;;;;;14.40;98.57;102090.13;5007946;28;20137;-60
2023/09/04 01:24:09;;;;;;;6.68;4.13;;;;;;;14.39;98.51;102093.72;4996669;28;20057;-60
2023/09/04 01:26:38;;;;;;;7.15;4.05;;;;;;;14.39;98.97;102093.72;5004923;28;20125;-60
2023/09/04 01:29:24;;;;;;;9.20;4.05;;;;;;;14.37;99.12;102103.56;4988247;28;20133;-59
2023/09/04 01:32:00;;;;;;;8.38;3.60;;;;;;;14.38;100.00;102094.66;5002988;28;20099;-60
2023/09/04 01:34:30;;;;;;;9.23;4.00;;;;;;;14.38;99.98;102095.50;5002984;28;20057;-62
2023/09/04 01:36:58;;;;;;;6.32;3.97;;;;;;;14.36;100.00;102091.22;5004989;28;20245;-61
2023/09/04 01:39:26;;;;;;;6.82;3.72;;;;;;;14.36;100.00;102102.69;5005931;28;20119;-61
2023/09/04 01:41:53;;;;;;;5.22;3.53;;;;;;;14.35;100.00;102089.50;5005943;28;20103;-62
2023/09/04 01:44:20;;;;;;;6.28;3.58;;;;;;;14.33;100.00;102092.25;5005420;28;21437;-61
2023/09/04 01:46:48;;;;;;;5.00;4.03;;;;;;;14.31;100.00;102093.25;5005545;28;20522;-62
2023/09/04 01:49:15;;;;;;;7.03;4.20;;;;;;;14.27;100.00;102097.84;5003697;28;20088;-61
2023/09/04 01:51:42;;;;;;;5.60;3.40;;;;;;;14.26;100.00;102095.28;5010340;28;20514;-62
2023/09/04 01:54:10;;;;;;;7.97;4.30;;;;;;;14.27;100.00;102094.34;5006673;28;20144;-63
2023/09/04 01:56:37;;;;;;;4.75;3.85;;;;;;;14.27;100.00;102100.50;5006069;28;20115;-61
2023/09/04 01:59:04;;;;;;;5.72;4.15;;;;;;;14.28;100.00;102098.72;5004353;28;20496;-60
2023/09/04 02:01:32;;;;;;;5.28;3.90;;;;;;;14.25;100.00;102104.16;5004169;28;20129;-60
2023/09/04 02:03:59;;;;;;;11.85;4.40;;;;;;;14.22;100.00;102099.03;5008205;28;20073;-60
2023/09/04 02:06:28;;;;;;;5.63;3.60;;;;;;;14.19;100.00;102092.94;5004345;28;20060;-60
2023/09/04 02:08:55;;;;;;;5.05;3.47;;;;;;;14.18;100.00;102095.66;5026206;28;20049;-62
2023/09/04 02:11:23;;;;;;;5.25;3.83;;;;;;;14.17;100.00;102088.66;5003247;28;20399;-62
2023/09/04 02:13:50;;;;;;;6.88;3.90;;;;;;;14.18;100.00;102098.31;5009032;28;20053;-60
2023/09/04 02:16:17;;;;;;;5.05;3.70;;;;;;;14.18;100.00;102096.53;5006422;28;20140;-62
2023/09/04 02:18:45;;;;;;;9.63;4.50;;;;;;;14.15;100.00;102096.69;5011559;28;20072;-58
2023/09/04 02:21:12;;;;;;;5.72;3.60;;;;;;;14.13;100.00;102093.25;5005958;28;20050;-62
2023/09/04 02:23:40;;;;;;;5.15;3.53;;;;;;;14.10;100.00;102098.72;5008679;28;20046;-61
2023/09/04 02:26:07;;;;;;;10.30;4.07;;;;;;;14.08;100.00;102105.00;5005270;28;20082;-61
2023/09/04 02:28:34;;;;;;;5.30;4.28;;;;;;;14.07;100.00;102108.59;5004247;28;20085;-60
2023/09/04 02:31:08;;;;;;;7.25;3.95;;;;;;;14.05;100.00;102099.84;5004696;28;20088;-58
2023/09/04 02:33:35;;;;;;;7.47;3.40;;;;;;;14.04;100.00;102100.78;5005643;28;20536;-62
2023/09/04 02:36:03;;;;;;;6.78;3.95;;;;;;;14.01;100.00;102099.19;5003964;28;20402;-60
2023/09/04 02:38:30;;;;;;;5.38;3.30;;;;;;;14.00;100.00;102097.44;5000343;28;20056;-61
2023/09/04 02:40:57;;;;;;;7.05;3.50;;;;;;;13.96;100.00;102089.72;5013332;28;20620;-61
2023/09/04 02:43:24;;;;;;;7.13;4.10;;;;;;;13.93;100.00;102096.91;5007469;28;20088;-61
2023/09/04 02:45:52;;;;;;;6.65;4.20;;;;;;;13.93;100.00;102096.91;5008395;28;20061;-61
2023/09/04 02:48:20;;;;;;;7.07;4.10;;;;;;;13.98;100.00;102095.81;5013227;28;20073;-65
2023/09/04 02:50:48;;;;;;;5.82;4.10;;;;;;;13.98;100.00;102093.16;5006619;28;20045;-64
2023/09/04 02:53:15;;;;;;;5.90;4.35;;;;;;;13.98;100.00;102096.66;5011315;28;20195;-59
2023/09/04 02:55:49;;;;;;;4.13;3.70;;;;;;;13.97;100.00;102094.97;5011003;28;20081;-60
2023/09/04 02:58:17;;;;;;;4.57;3.47;;;;;;;13.94;100.00;102095.09;5010659;28;20141;-60
2023/09/04 03:00:44;;;;;;;5.57;3.75;;;;;;;13.93;100.00;102101.34;5005283;28;20061;-59
2023/09/04 03:03:12;;;;;;;7.82;4.35;;;;;;;13.91;100.00;102093.50;5010584;28;20071;-61
2023/09/04 03:05:40;;;;;;;9.75;3.63;;;;;;;13.89;100.00;102099.78;5006050;28;20054;-60
2023/09/04 03:08:07;;;;;;;7.35;3.67;;;;;;;13.87;100.00;102104.31;5008886;28;20138;-60
2023/09/04 03:10:34;;;;;;;9.23;3.25;;;;;;;13.85;100.00;102093.78;5009492;28;20148;-59
2023/09/04 03:13:01;;;;;;;7.68;3.83;;;;;;;13.83;100.00;102102.75;5007914;28;21067;-60
2023/09/04 03:15:29;;;;;;;6.05;3.88;;;;;;;13.83;100.00;102100.94;5004400;28;20698;-61
2023/09/04 03:17:56;;;;;;;6.07;3.90;;;;;;;13.83;100.00;102105.38;5008718;28;20053;-62
2023/09/04 03:20:23;;;;;;;5.93;3.85;;;;;;;13.83;100.00;102108.88;5008796;28;20054;-59
2023/09/04 03:22:52;;;;;;;7.70;3.53;;;;;;;13.81;100.00;102102.78;4988773;28;20046;-63
2023/09/04 03:25:19;;;;;;;7.47;3.75;;;;;;;13.80;100.00;102116.97;5008513;28;20061;-61
2023/09/04 03:27:46;;;;;;;5.45;3.65;;;;;;;13.78;100.00;102115.31;5009847;28;20425;-63
2023/09/04 03:30:14;;;;;;;10.40;4.68;;;;;;;13.76;100.00;102111.91;5005541;28;20144;-62
2023/09/04 03:32:41;;;;;;;5.93;3.78;;;;;;;13.73;100.00;102118.19;5009340;28;20136;-62
2023/09/04 03:35:08;;;;;;;7.13;4.00;;;;;;;13.74;100.00;102124.34;5009130;28;20135;-59
2023/09/04 03:37:36;;;;;;;5.57;3.70;;;;;;;13.76;100.00;102128.63;5008254;28;20042;-61
2023/09/04 03:40:23;;;;;;;5.82;3.78;;;;;;;13.80;100.00;102132.00;5010091;28;20053;-61
2023/09/04 03:42:52;;;;;;;5.03;3.72;;;;;;;13.80;100.00;102135.50;5003971;28;21450;-62
2023/09/04 03:45:19;;;;;;;6.63;3.35;;;;;;;13.79;100.00;102128.50;5009669;28;20133;-60
2023/09/04 03:47:48;;;;;;;5.85;4.15;;;;;;;13.77;100.00;102132.13;5002260;28;20060;-61
2023/09/04 03:50:16;;;;;;;7.93;4.00;;;;;;;13.75;100.00;102140.16;5002592;28;20050;-62
2023/09/04 03:52:43;;;;;;;8.50;4.20;;;;;;;13.75;100.00;102140.16;5006475;28;20050;-60
2023/09/04 03:55:11;;;;;;;6.38;4.22;;;;;;;13.73;100.00;102125.25;5009498;28;20085;-62
2023/09/04 03:57:42;;;;;;;8.73;4.20;;;;;;;13.70;100.00;102130.72;5004210;28;20054;-61
2023/09/04 04:00:19;;;;;;;7.78;4.03;;;;;;;13.70;100.00;102136.03;5009346;28;20060;-61
2023/09/04 04:02:48;;;;;;;6.30;3.67;;;;;;;13.68;100.00;102136.94;5002313;28;20137;-59
2023/09/04 04:05:17;;;;;;;6.85;3.28;;;;;;;13.65;100.00;102131.81;5006913;28;20058;-62
2023/09/04 04:07:44;;;;;;;6.95;4.30;;;;;;;13.65;100.00;102144.19;5000762;28;20175;-60
2023/09/04 04:10:11;;;;;;;8.07;4.55;;;;;;;13.60;100.00;102140.91;5007808;28;20057;-60
2023/09/04 04:12:39;;;;;;;8.32;4.30;;;;;;;13.57;100.00;102143.69;5006030;28;20103;-60
2023/09/04 04:15:07;;;;;;;5.68;4.18;;;;;;;13.56;100.00;102147.25;5000514;28;20136;-62
2023/09/04 04:17:35;;;;;;;6.10;4.05;;;;;;;13.56;100.00;102153.41;5002380;28;20145;-59
2023/09/04 04:20:10;;;;;;;5.93;4.35;;;;;;;13.55;100.00;102151.66;5004628;28;20042;-61
2023/09/04 04:22:41;;;;;;;6.97;4.50;;;;;;;13.57;100.00;102160.41;4998486;28;20054;-61
2023/09/04 04:25:09;;;;;;;10.38;4.55;;;;;;;13.60;100.00;102152.34;5004709;28;20185;-61
2023/09/04 04:27:38;;;;;;;8.43;4.40;;;;;;;13.59;100.00;102149.75;5007232;28;20462;-59
2023/09/04 04:30:06;;;;;;;5.65;3.70;;;;;;;13.61;100.00;102153.19;5004854;28;20168;-61
2023/09/04 04:32:33;;;;;;;5.45;3.67;;;;;;;13.60;100.00;102151.47;5010295;28;20133;-62
2023/09/04 04:35:01;;;;;;;10.93;4.95;;;;;;;13.60;100.00;102155.00;5008627;28;20136;-59
2023/09/04 04:37:28;;;;;;;8.82;4.60;;;;;;;13.61;100.00;102159.34;5007838;28;20061;-61
2023/09/04 04:39:55;;;;;;;6.30;4.10;;;;;;;13.63;100.00;102153.97;5005415;28;20046;-61
2023/09/04 04:42:26;;;;;;;8.40;4.85;;;;;;;13.65;100.00;102163.56;5003658;28;20092;-60
2023/09/04 04:44:55;;;;;;;7.20;4.57;;;;;;;13.67;100.00;102159.03;5003757;28;20209;-61
2023/09/04 04:47:22;;;;;;;7.32;4.65;;;;;;;13.73;100.00;102157.88;5002538;28;20590;-61
2023/09/04 04:49:49;;;;;;;11.65;4.88;;;;;;;13.78;100.00;102157.66;5002266;28;20042;-60
2023/09/04 04:52:17;;;;;;;5.75;4.07;;;;;;;13.83;100.00;102166.25;5005437;28;20129;-60
2023/09/04 04:54:44;;;;;;;5.88;3.75;;;;;;;13.84;100.00;102167.97;5005250;28;20526;-61
2023/09/04 04:57:11;;;;;;;11.13;4.78;;;;;;;13.84;100.00;102167.97;4984962;28;20444;-61
2023/09/04 04:59:38;;;;;;;6.88;4.35;;;;;;;13.85;100.00;102169.69;5005092;28;20121;-62
2023/09/04 05:02:05;;;;;;;8.25;4.60;;;;;;;13.86;100.00;102171.38;5006357;28;20087;-61
2023/09/04 05:04:34;;;;;;;5.05;3.60;;;;;;;13.88;100.00;102174.84;5006905;28;20072;-61
2023/09/04 05:07:02;;;;;;;10.05;3.83;;;;;;;13.89;100.00;102181.84;5003510;28;20056;-59
2023/09/04 05:09:29;;;;;;;5.00;3.40;;;;;;;13.88;100.00;102173.03;5005256;28;20509;-61
2023/09/04 05:11:56;;;;;;;8.45;3.92;;;;;;;13.90;100.00;102178.25;5010005;28;20110;-60
2023/09/04 05:14:24;;;;;;;10.05;4.70;;;;;;;13.93;100.00;102184.28;5004737;28;20092;-61
2023/09/04 05:16:51;;;;;;;7.60;4.50;;;;;;;13.98;100.00;102180.53;5001551;28;20050;-65
2023/09/04 05:19:19;;;;;;;6.72;4.13;;;;;;;14.02;100.00;102184.75;5003764;28;20054;-61
2023/09/04 05:21:46;;;;;;;9.65;4.70;;;;;;;14.06;100.00;102179.25;5002935;28;20053;-62
2023/09/04 05:24:23;;;;;;;10.50;4.80;;;;;;;14.11;100.00;102174.56;5002200;28;20046;-65
2023/09/04 05:26:50;;;;;;;6.38;4.32;;;;;;;14.17;100.00;102186.66;5005362;28;20149;-62
2023/09/04 05:29:18;;;;;;;9.82;5.13;;;;;;;14.26;100.00;102174.75;5005108;28;20610;-63
2023/09/04 05:31:45;;;;;;;5.05;4.20;;;;;;;14.35;100.00;102184.88;4996318;28;20053;-63
2023/09/04 05:34:12;;;;;;;7.68;4.47;;;;;;;14.43;100.00;102180.91;5005110;28;20053;-61
2023/09/04 05:36:40;;;;;;;9.35;4.93;;;;;;;14.53;100.00;102177.84;5000309;28;20093;-63
2023/09/04 05:39:08;;;;;;;11.02;5.13;;;;;;;14.63;100.00;102177.31;5003837;28;20137;-63
2023/09/04 05:41:36;;;;;;;6.72;5.43;;;;;;;14.75;100.00;102175.81;5007277;28;20095;-63
2023/09/04 05:44:06;;;;;;;13.63;6.95;;;;;;;14.87;100.00;102177.81;5007971;28;20077;-63
2023/09/04 05:46:34;;;;;;;14.57;4.78;;;;;;;14.96;100.00;102186.25;5004461;28;20136;-61
2023/09/04 05:49:01;;;;;;;12.88;6.05;;;;;;;15.05;100.00;102186.59;5001339;28;20405;-62
2023/09/04 05:51:28;;;;;;;12.60;6.40;;;;;;;15.05;100.00;102185.75;5004148;28;20494;-62
2023/09/04 05:53:55;;;;;;;11.98;7.10;;;;;;;15.14;100.00;102188.78;5007295;28;20053;-63
2023/09/04 05:56:23;;;;;;;12.98;6.53;;;;;;;15.11;100.00;102186.28;5001903;28;20109;-61
2023/09/04 05:58:51;;;;;;;9.35;6.18;;;;;;;15.27;100.00;102194.28;5003792;28;20085;-62
2023/09/04 06:01:19;;;;;;;8.65;5.68;;;;;;;15.41;100.00;102190.88;4999279;28;20188;-63
2023/09/04 06:03:46;;;;;;;11.30;6.38;;;;;;;15.47;100.00;102187.03;5003725;28;20585;-63
2023/09/04 06:06:14;;;;;;;9.68;6.55;;;;;;;15.56;100.00;102191.84;5006343;28;20132;-62
2023/09/04 06:08:42;;;;;;;8.48;6.18;;;;;;;15.61;100.00;102190.63;5003431;28;20084;-66
2023/09/04 06:11:09;;;;;;;8.93;5.90;;;;;;;15.76;100.00;102188.09;5009691;28;20046;-62
2023/09/04 06:13:36;;;;;;;14.95;6.35;;;;;;;15.86;100.00;102182.19;5009187;28;20538;-62
2023/09/04 06:16:03;;;;;;;12.63;6.68;;;;;;;15.88;100.00;102182.97;4999407;28;20050;-62
2023/09/04 06:18:31;;;;;;;9.30;6.70;;;;;;;16.06;100.00;102180.22;4988324;28;20471;-61
2023/09/04 06:20:58;;;;;;;9.32;6.10;;;;;;;16.15;99.90;102182.34;4988951;28;20072;-62
2023/09/04 06:23:25;;;;;;;8.10;5.60;;;;;;;16.31;99.53;102185.81;5007225;28;20053;-61
2023/09/04 06:25:52;;;;;;;10.93;5.85;;;;;;;16.45;98.77;102187.69;5004233;28;20133;-61
2023/09/04 06:28:20;;;;;;;11.57;6.68;;;;;;;16.54;97.56;102184.47;4990582;28;20056;-62
2023/09/04 06:30:49;;;;;;;11.57;6.07;;;;;;;16.70;97.31;102185.25;5004016;28;20050;-61
2023/09/04 06:33:17;;;;;;;8.10;5.88;;;;;;;16.84;96.44;102184.47;5006219;28;20660;-62
2023/09/04 06:35:44;;;;;;;10.73;6.50;;;;;;;16.97;95.69;102181.91;5005829;28;20482;-62
2023/09/04 06:38:12;;;;;;;9.75;5.72;;;;;;;17.09;95.15;102173.19;5004592;28;20433;-62
2023/09/04 06:40:40;;;;;;;9.35;6.68;;;;;;;17.22;94.27;102178.59;5001240;28;20403;-62
2023/09/04 06:43:07;;;;;;;9.48;5.30;;;;;;;17.33;93.65;102177.91;5005397;28;20050;-62
2023/09/04 06:45:37;;;;;;;13.38;6.88;;;;;;;17.44;93.15;102180.78;5006121;28;20058;-63
2023/09/04 06:48:05;;;;;;;12.02;5.95;;;;;;;17.50;90.98;102182.19;5000588;28;20109;-63
2023/09/04 06:50:32;;;;;;;8.13;5.57;;;;;;;17.40;91.81;102181.94;5001096;28;20064;-61
2023/09/04 06:52:59;;;;;;;9.07;5.32;;;;;;;17.51;91.58;102178.56;5004336;28;20530;-62
2023/09/04 06:55:27;;;;;;;13.07;6.55;;;;;;;17.68;90.84;102181.03;5003033;28;20054;-62
2023/09/04 06:57:54;;;;;;;9.80;5.72;;;;;;;17.44;90.25;102184.28;5004412;28;20062;-62
2023/09/04 07:00:21;;;;;;;10.30;6.28;;;;;;;17.51;90.15;102174.09;5000102;28;20067;-62
2023/09/04 07:02:49;;;;;;;13.77;7.57;;;;;;;17.49;90.10;102181.34;5000729;28;20050;-62
2023/09/04 07:05:17;;;;;;;19.98;7.57;;;;;;;17.72;89.77;102174.53;5006508;28;20066;-64
2023/09/04 07:07:47;;;;;;;11.30;6.10;;;;;;;17.96;89.03;102174.78;5005942;28;20533;-64
2023/09/04 07:10:15;;;;;;;14.40;7.05;;;;;;;18.02;87.21;102173.56;5003575;28;20088;-63
2023/09/04 07:12:42;;;;;;;13.68;6.60;;;;;;;18.12;87.12;102167.50;5008732;28;20312;-63
2023/09/04 07:15:10;;;;;;;12.98;6.40;;;;;;;18.26;85.93;102168.41;5003635;28;20138;-62
2023/09/04 07:17:37;;;;;;;22.27;6.65;;;;;;;18.23;85.35;102174.78;5004020;28;20152;-62
2023/09/04 07:20:05;;;;;;;9.23;5.65;;;;;;;18.38;85.51;102179.09;5006584;28;20051;-63
2023/09/04 07:22:32;;;;;;;8.50;6.13;;;;;;;18.53;84.94;102177.19;5004886;28;20081;-61
2023/09/04 07:25:00;;;;;;;8.75;5.30;;;;;;;18.49;83.97;102173.03;5004002;28;20158;-63
2023/09/04 07:27:27;;;;;;;9.68;5.53;;;;;;;18.69;84.14;102174.38;5004000;28;20053;-64
2023/09/04 07:29:54;;;;;;;7.82;5.05;;;;;;;18.77;81.48;102177.34;5008339;28;20137;-62
2023/09/04 07:32:22;;;;;;;6.88;4.80;;;;;;;18.58;82.40;102174.22;5009000;28;20757;-63
2023/09/04 07:34:55;;;;;;;9.85;4.75;;;;;;;18.82;82.55;102174.38;5002941;28;20054;-63
2023/09/04 07:37:28;;;;;;;10.50;4.68;;;;;;;18.83;80.26;102176.94;5009334;28;20601;-63
2023/09/04 07:39:56;;;;;;;9.73;4.47;;;;;;;18.71;81.27;102178.63;5008647;28;20081;-63
2023/09/04 07:42:23;;;;;;;8.52;5.00;;;;;;;18.90;80.98;102177.38;5006232;28;20050;-63
2023/09/04 07:44:50;;;;;;;10.18;4.45;;;;;;;19.17;80.09;102180.78;5008900;28;20058;-62
2023/09/04 07:47:18;;;;;;;16.48;5.57;;;;;;;19.09;78.41;102176.94;5006395;28;20149;-61
2023/09/04 07:49:45;;;;;;;8.20;4.20;;;;;;;19.20;78.35;102183.22;5003724;28;20141;-62
2023/09/04 07:52:12;;;;;;;7.85;3.63;;;;;;;19.34;77.20;102181.41;4983424;28;20050;-63
2023/09/04 07:54:39;;;;;;;8.30;3.63;;;;;;;19.25;76.94;102190.91;5006776;28;20417;-63
2023/09/04 07:57:07;;;;;;;5.57;3.15;;;;;;;19.49;75.67;102180.28;5003519;28;20058;-61
2023/09/04 07:59:34;;;;;;;14.05;3.70;;;;;;;19.47;75.06;102191.09;5000224;28;20220;-63
2023/09/04 08:02:03;;;;;;;7.03;3.40;;;;;;;19.57;75.19;102188.63;5006673;28;20050;-63
2023/09/04 08:04:31;;;;;;;5.85;3.00;;;;;;;19.74;75.15;102190.09;5009597;28;20115;-63
2023/09/04 08:06:58;;;;;;;5.50;3.03;;;;;;;19.79;74.75;102189.78;5009304;28;20410;-61
2023/09/04 08:09:25;;;;;;;6.75;3.47;;;;;;;19.95;74.71;102180.53;5008924;28;20141;-62
2023/09/04 08:11:52;;;;;;;7.95;3.55;;;;;;;19.89;74.09;102190.78;5008521;28;20077;-63
2023/09/04 08:14:19;;;;;;;6.28;3.00;;;;;;;20.16;73.39;102185.22;5009892;28;20049;-63
2023/09/04 08:16:47;;;;;;;7.70;2.85;;;;;;;20.22;71.80;102188.31;5006123;28;20087;-63
2023/09/04 08:19:14;;;;;;;5.43;2.40;;;;;;;20.28;71.37;102186.13;5006788;28;20070;-63
2023/09/04 08:21:41;;;;;;;8.43;3.35;;;;;;;20.00;72.20;102182.84;5014159;28;20557;-62
2023/09/04 08:24:08;;;;;;;6.65;2.85;;;;;;;20.13;72.27;102183.66;5010991;28;20355;-63
2023/09/04 08:26:36;;;;;;;9.18;3.42;;;;;;;20.40;71.70;102177.19;5011697;28;20536;-63
2023/09/04 08:29:03;;;;;;;3.75;2.53;;;;;;;20.60;71.25;102176.53;5009019;28;20153;-62
2023/09/04 08:31:30;;;;;;;6.97;3.60;;;;;;;20.76;69.07;102173.56;5006724;28;20061;-63
2023/09/04 08:33:57;;;;;;;12.10;3.60;;;;;;;20.76;69.36;102168.19;4972728;28;20058;-62
2023/09/04 08:36:25;;;;;;;8.32;3.60;;;;;;;20.70;68.79;102168.66;5001918;28;20137;-61
2023/09/04 08:38:52;;;;;;;5.18;3.70;;;;;;;20.84;68.06;102165.75;5007015;28;20113;-62
2023/09/04 08:41:21;;;;;;;5.70;2.97;;;;;;;20.86;68.30;102162.97;5010075;28;20137;-60
2023/09/04 08:43:49;;;;;;;6.32;3.33;;;;;;;21.01;68.01;102160.91;4987799;28;20084;-62
2023/09/04 08:46:18;;;;;;;4.22;2.67;;;;;;;21.10;67.68;102162.84;5022746;28;20139;-61
2023/09/04 08:48:46;;;;;;;5.20;3.08;;;;;;;21.26;67.93;102166.03;4988854;28;20122;-61
2023/09/04 08:51:14;;;;;;;7.35;4.93;;;;;;;21.36;66.67;102166.19;5004387;28;20042;-62
2023/09/04 08:53:41;;;;;;;10.32;3.90;;;;;;;21.11;67.40;102168.09;4988747;28;20148;-62
2023/09/04 08:56:09;;;;;;;11.55;3.67;;;;;;;21.33;66.43;102166.41;5006076;28;20053;-62
2023/09/04 08:58:36;;;;;;;13.27;3.63;;;;;;;21.22;66.05;102162.75;4992413;28;20050;-62
2023/09/04 09:01:03;;;;;;;12.30;3.97;;;;;;;21.19;66.60;102171.00;5006737;28;20097;-62
2023/09/04 09:03:31;;;;;;;5.25;3.40;;;;;;;21.40;65.81;102168.50;4992536;28;20141;-63
2023/09/04 09:05:59;;;;;;;6.85;3.88;;;;;;;21.50;65.32;102179.31;5007102;28;20345;-61
2023/09/04 09:08:30;;;;;;;6.85;4.28;;;;;;;21.62;64.18;102175.66;4993043;28;20049;-64
2023/09/04 09:10:57;;;;;;;7.40;3.08;;;;;;;21.71;64.47;102180.25;5007139;28;20478;-62
2023/09/04 09:13:24;;;;;;;7.57;3.28;;;;;;;21.92;64.80;102183.00;5006613;28;20141;-62
2023/09/04 09:15:54;;;;;;;6.93;3.28;;;;;;;22.13;63.90;102183.09;5007165;28;20149;-62
2023/09/04 09:18:38;;;;;;;5.80;2.90;;;;;;;22.18;62.55;102182.69;5007881;28;20057;-61
2023/09/04 09:21:34;;;;;;;6.30;3.15;;;;;;;22.18;61.42;102180.88;5004934;28;20054;-62
2023/09/04 09:24:15;;;;;;;6.63;3.20;;;;;;;21.98;61.53;102174.47;5005693;28;20069;-62
2023/09/04 09:26:47;;;;;;;7.03;3.75;;;;;;;21.92;62.10;102172.25;5005721;28;20092;-66
2023/09/04 09:29:15;;;;;;;7.00;3.55;;;;;;;22.21;60.40;102172.56;5007145;28;20175;-62
2023/09/04 09:31:45;;;;;;;7.55;4.28;;;;;;;22.19;60.43;102171.84;4988560;28;20053;-62
2023/09/04 09:34:12;;;;;;;6.55;3.47;;;;;;;22.15;60.23;102165.03;5006711;28;20137;-62
2023/09/04 09:36:40;;;;;;;8.07;4.00;;;;;;;22.07;61.18;102169.31;5006440;28;20050;-62
2023/09/04 09:39:07;;;;;;;5.60;4.38;;;;;;;22.18;61.31;102170.13;5006472;28;20064;-62
2023/09/04 09:41:34;;;;;;;6.70;3.63;;;;;;;22.29;60.78;102163.00;5006447;28;20136;-62
2023/09/04 09:44:03;;;;;;;13.15;4.68;;;;;;;22.23;60.94;102167.06;4990295;28;20125;-62
2023/09/04 09:46:35;;;;;;;5.22;3.63;;;;;;;22.10;61.19;102167.22;4987610;28;20058;-62
2023/09/04 09:49:02;;;;;;;6.70;4.78;;;;;;;21.99;61.52;102162.75;5001048;28;20066;-62
2023/09/04 09:51:31;;;;;;;6.03;3.72;;;;;;;22.11;61.24;102168.94;5006862;28;20046;-62
2023/09/04 09:53:59;;;;;;;5.13;4.15;;;;;;;22.13;60.66;102164.31;5004861;28;20267;-62
2023/09/04 09:56:27;;;;;;;6.82;3.65;;;;;;;22.26;59.83;102168.66;5006102;28;20067;-62
2023/09/04 09:58:56;;;;;;;8.95;3.15;;;;;;;22.48;60.39;102163.19;5004012;28;20137;-62
2023/09/04 10:01:27;;;;;;;4.72;2.88;;;;;;;22.88;59.70;102165.97;5005263;28;20658;-63
2023/09/04 10:03:55;;;;;;;6.38;3.60;;;;;;;22.69;59.17;102161.31;5003096;28;20149;-62
2023/09/04 10:06:23;;;;;;;9.13;4.05;;;;;;;22.84;59.66;102167.22;5000910;28;20050;-62
2023/09/04 10:08:51;;;;;;;6.60;2.92;;;;;;;23.08;59.39;102158.88;5009913;28;20261;-60
2023/09/04 10:11:18;;;;;;;6.60;3.00;;;;;;;23.31;58.76;102164.06;5002390;28;20141;-62
2023/09/04 10:13:58;;;;;;;3.75;2.67;;;;;;;23.39;58.93;102175.84;5004835;28;20454;-62
2023/09/04 10:16:33;;;;;;;3.50;2.17;;;;;;;23.65;58.11;102168.16;5002914;28;20136;-63
2023/09/04 10:19:02;;;;;;;3.03;2.65;;;;;;;23.87;56.87;102167.06;4976047;28;20132;-63
2023/09/04 10:21:33;;;;;;;4.63;2.92;;;;;;;23.73;54.96;102176.38;5005610;28;20248;-62
2023/09/04 10:24:04;;;;;;;5.32;2.90;;;;;;;23.37;54.56;102163.50;5005180;28;20455;-62
2023/09/04 10:26:39;;;;;;;4.00;2.17;;;;;;;23.37;55.38;102167.06;5006753;28;20141;-62
2023/09/04 10:29:11;;;;;;;6.85;2.55;;;;;;;23.66;55.87;102171.69;5007236;28;20133;-62
2023/09/04 10:31:39;;;;;;;5.43;3.13;;;;;;;23.63;55.58;102169.25;5003617;28;20137;-61
2023/09/04 10:34:07;;;;;;;5.28;2.55;;;;;;;23.82;54.44;102158.56;4972038;28;20470;-60
2023/09/04 10:36:34;;;;;;;4.25;2.55;;;;;;;23.92;54.71;102156.75;5006034;28;20050;-62
2023/09/04 10:39:02;;;;;;;3.65;2.05;;;;;;;24.21;54.40;102159.41;5002107;28;20133;-62
2023/09/04 10:41:31;;;;;;;4.47;2.17;;;;;;;24.39;53.68;102151.50;4986066;28;20054;-61
2023/09/04 10:43:58;;;;;;;3.92;2.65;;;;;;;24.57;54.36;102148.94;5001939;28;20060;-61
2023/09/04 10:46:26;;;;;;;4.50;2.80;;;;;;;24.57;52.88;102138.16;4992133;28;20065;-63
2023/09/04 10:48:53;;;;;;;7.00;2.50;;;;;;;24.64;53.29;102147.38;5000354;28;20097;-62
2023/09/04 10:51:31;;;;;;;5.15;2.13;;;;;;;24.82;53.06;102147.47;5006887;28;20511;-63
2023/09/04 10:54:09;;;;;;;4.07;2.42;;;;;;;24.98;51.88;102136.88;5003529;28;20046;-63
2023/09/04 10:56:56;;;;;;;3.63;2.03;;;;;;;25.21;51.73;102137.38;5005956;28;20061;-63
2023/09/04 10:59:24;;;;;;;3.47;2.15;;;;;;;25.36;51.16;102142.31;5005045;28;20049;-63
2023/09/04 11:01:52;;;;;;;3.53;2.10;;;;;;;25.55;51.61;102136.78;5005472;28;20593;-62
2023/09/04 11:04:31;;;;;;;3.95;1.92;;;;;;;25.71;50.04;102133.41;5005885;28;20141;-62
2023/09/04 11:07:28;;;;;;;3.10;1.83;;;;;;;25.94;49.25;102129.28;5008223;28;20474;-62
2023/09/04 11:10:02;;;;;;;2.70;2.13;;;;;;;26.17;49.22;102128.81;5009365;28;20136;-62
2023/09/04 11:12:35;;;;;;;2.38;1.98;;;;;;;26.33;48.50;102123.53;5004627;28;20042;-63
2023/09/04 11:15:11;;;;;;;4.32;1.75;;;;;;;26.44;47.26;102128.72;5058609;22;20045;-60
2023/09/04 11:17:40;;;;;;;2.60;1.90;;;;;;;26.54;47.19;102127.78;5063177;28;20450;-58
2023/09/04 11:20:09;;;;;;;3.55;2.53;;;;;;;26.70;46.91;102131.44;5067676;28;20098;-60
2023/09/04 11:22:36;;;;;;;4.40;2.20;;;;;;;26.76;45.79;102124.53;5052821;28;20116;-61
2023/09/04 11:25:04;;;;;;;7.00;2.50;;;;;;;26.80;46.23;102125.06;5057242;28;20052;-60
2023/09/04 11:27:31;;;;;;;4.13;2.17;;;;;;;26.85;45.59;102126.28;5066600;28;20136;-62